首页
METAR-TAF:

METAR-TAF

机场 :

安德鲁斯空军基地

Camp Springs, 马里兰州, 美国

纬度: 38-49N, 经度: 076-51W, 海拔: 86米

当前天气观测

该预报发布于58分钟前的16:56 UTC
风速9节,风向西转西北,有时为17节阵风
温度 11°C
湿度 54%
气压 1017 hPa
能見度: 16.1公里
少量云层高于3500英尺
阴天层高于7000英尺

METAR: KADW 201656Z AUTO 30009G17KT 10SM FEW035 OVC070 11/02 A3003 RMK AO2 SLP177 T01090017 $

时间: 12:54 (17:54 UTC)

预报

该预报发布于54分钟前的17:00 UTC
预报有效从20日的 17点(UTC)到 21日的 23点(UTC)
风速10节,风向西北,有时为20节阵风
能见度10公里或以上
散云层高于5000英尺
多云层高于7000英尺
成为
从 20日的 21点(UTC)到 20日的 22点(UTC)
风速8节,风向西北
能见度10公里或以上
散云层高于2000英尺
散云层高于5000英尺
成为
从 21日的 20点(UTC)到 21日的 21点(UTC)
风速8节,风向西北
能见度10公里或以上
多云层高于20000英尺

TAF: KADW 201700Z 2017/2123 31010G20KT 9999 SCT050 BKN070 QNH3004INS BECMG 2021/2022 31008KT 9999 SCT020 SCT050 QNH3010INS BECMG 2120/2121 31008KT 9999 BKN200 QNH3013INS TX11/2019Z TN03/2112Z

超过4000个机场的气象观测和天气预报(METAR&TAF报告)。

可查询的气象台以黄色和红色小点在地图上表示。

将鼠标移到小点上方,可查看气象台名称。

然后点击查看天气观测和预报。

如需切换地图:点击带黑十字的绿色按钮放大地图;点击带横线的绿色按钮缩小地图;或者点击绿色箭头查看邻近地区的地图。


METAR-TAF: